sensor_id;sensor_type;location;lat;lon;timestamp;temperature;humidity
19941;DHT22;10132;50.864;5.176;2023-01-31T00:00:41;3.10;99.90
19941;DHT22;10132;50.864;5.176;2023-01-31T00:02:43;3.10;99.90
19941;DHT22;10132;50.864;5.176;2023-01-31T00:04:45;3.20;99.90
19941;DHT22;10132;50.864;5.176;2023-01-31T00:06:48;3.10;99.90
19941;DHT22;10132;50.864;5.176;2023-01-31T00:08:52;3.10;99.90
19941;DHT22;10132;50.864;5.176;2023-01-31T00:10:57;3.10;99.90
19941;DHT22;10132;50.864;5.176;2023-01-31T00:12:59;3.10;99.90
19941;DHT22;10132;50.864;5.176;2023-01-31T00:15:01;3.10;99.90
19941;DHT22;10132;50.864;5.176;2023-01-31T00:17:05;3.20;99.90
19941;DHT22;10132;50.864;5.176;2023-01-31T00:19:07;3.30;99.90
19941;DHT22;10132;50.864;5.176;2023-01-31T00:21:11;3.20;99.90
19941;DHT22;10132;50.864;5.176;2023-01-31T00:23:13;3.20;99.90
19941;DHT22;10132;50.864;5.176;2023-01-31T00:25:15;3.20;99.90
19941;DHT22;10132;50.864;5.176;2023-01-31T00:27:17;3.30;99.90
19941;DHT22;10132;50.864;5.176;2023-01-31T00:29:19;3.20;99.90
19941;DHT22;10132;50.864;5.176;2023-01-31T00:31:22;3.20;99.90
19941;DHT22;10132;50.864;5.176;2023-01-31T00:33:26;3.20;99.90
19941;DHT22;10132;50.864;5.176;2023-01-31T00:35:28;3.20;99.90
19941;DHT22;10132;50.864;5.176;2023-01-31T00:37:30;3.20;99.90
19941;DHT22;10132;50.864;5.176;2023-01-31T00:39:32;3.20;99.90
19941;DHT22;10132;50.864;5.176;2023-01-31T00:41:35;3.20;99.90
19941;DHT22;10132;50.864;5.176;2023-01-31T00:43:37;3.20;99.90
19941;DHT22;10132;50.864;5.176;2023-01-31T00:45:39;3.20;99.90
19941;DHT22;10132;50.864;5.176;2023-01-31T00:47:41;3.20;99.90
19941;DHT22;10132;50.864;5.176;2023-01-31T00:49:44;3.30;99.90
19941;DHT22;10132;50.864;5.176;2023-01-31T00:51:46;3.20;99.90
19941;DHT22;10132;50.864;5.176;2023-01-31T00:53:48;3.30;99.90
19941;DHT22;10132;50.864;5.176;2023-01-31T00:55:52;3.30;99.90
19941;DHT22;10132;50.864;5.176;2023-01-31T00:57:54;3.30;99.90
19941;DHT22;10132;50.864;5.176;2023-01-31T00:59:56;3.40;99.90
19941;DHT22;10132;50.864;5.176;2023-01-31T01:01:58;3.40;99.90
19941;DHT22;10132;50.864;5.176;2023-01-31T01:04:00;3.40;99.90
19941;DHT22;10132;50.864;5.176;2023-01-31T01:06:04;3.30;99.90
19941;DHT22;10132;50.864;5.176;2023-01-31T01:08:07;3.30;99.90
19941;DHT22;10132;50.864;5.176;2023-01-31T01:10:10;3.20;99.90
19941;DHT22;10132;50.864;5.176;2023-01-31T01:12:12;3.10;99.90
19941;DHT22;10132;50.864;5.176;2023-01-31T01:14:14;3.10;99.90
19941;DHT22;10132;50.864;5.176;2023-01-31T01:16:20;3.10;99.90
19941;DHT22;10132;50.864;5.176;2023-01-31T01:18:23;3.10;99.90
19941;DHT22;10132;50.864;5.176;2023-01-31T01:20:24;3.10;99.90
19941;DHT22;10132;50.864;5.176;2023-01-31T01:22:28;3.10;99.90
19941;DHT22;10132;50.864;5.176;2023-01-31T01:24:30;3.10;99.90
19941;DHT22;10132;50.864;5.176;2023-01-31T01:26:33;3.10;99.90
19941;DHT22;10132;50.864;5.176;2023-01-31T01:28:35;3.20;99.90
19941;DHT22;10132;50.864;5.176;2023-01-31T01:30:37;3.10;99.90
19941;DHT22;10132;50.864;5.176;2023-01-31T01:32:39;3.00;99.90
19941;DHT22;10132;50.864;5.176;2023-01-31T01:34:41;3.00;99.90
19941;DHT22;10132;50.864;5.176;2023-01-31T01:36:43;2.90;99.90
19941;DHT22;10132;50.864;5.176;2023-01-31T01:38:47;3.00;99.90
19941;DHT22;10132;50.864;5.176;2023-01-31T01:40:49;3.00;99.90
19941;DHT22;10132;50.864;5.176;2023-01-31T01:42:51;3.00;99.90
19941;DHT22;10132;50.864;5.176;2023-01-31T01:44:54;3.00;99.90
19941;DHT22;10132;50.864;5.176;2023-01-31T01:46:58;3.00;99.90
19941;DHT22;10132;50.864;5.176;2023-01-31T01:49:05;3.00;99.90
19941;DHT22;10132;50.864;5.176;2023-01-31T01:51:13;3.00;99.90
19941;DHT22;10132;50.864;5.176;2023-01-31T01:53:21;3.00;99.90
19941;DHT22;10132;50.864;5.176;2023-01-31T01:55:28;3.00;99.90
19941;DHT22;10132;50.864;5.176;2023-01-31T01:57:37;2.90;99.90
19941;DHT22;10132;50.864;5.176;2023-01-31T01:59:43;2.80;99.90
19941;DHT22;10132;50.864;5.176;2023-01-31T02:01:47;2.90;99.90
19941;DHT22;10132;50.864;5.176;2023-01-31T02:03:50;2.80;99.90
19941;DHT22;10132;50.864;5.176;2023-01-31T02:05:56;2.80;99.90
19941;DHT22;10132;50.864;5.176;2023-01-31T02:07:59;2.80;99.90
19941;DHT22;10132;50.864;5.176;2023-01-31T02:10:05;2.80;99.90
19941;DHT22;10132;50.864;5.176;2023-01-31T02:12:11;2.70;99.90
19941;DHT22;10132;50.864;5.176;2023-01-31T02:14:14;2.70;99.90
19941;DHT22;10132;50.864;5.176;2023-01-31T02:16:17;2.70;99.90
19941;DHT22;10132;50.864;5.176;2023-01-31T02:18:21;2.70;99.90
19941;DHT22;10132;50.864;5.176;2023-01-31T02:20:45;2.70;99.90
19941;DHT22;10132;50.864;5.176;2023-01-31T02:22:57;2.60;99.90
19941;DHT22;10132;50.864;5.176;2023-01-31T02:25:29;2.80;99.90
19941;DHT22;10132;50.864;5.176;2023-01-31T02:28:03;2.80;99.90
19941;DHT22;10132;50.864;5.176;2023-01-31T02:30:44;2.80;99.90
19941;DHT22;10132;50.864;5.176;2023-01-31T02:32:58;2.90;99.90
19941;DHT22;10132;50.864;5.176;2023-01-31T02:35:09;3.00;99.90
19941;DHT22;10132;50.864;5.176;2023-01-31T02:37:20;2.90;99.90
19941;DHT22;10132;50.864;5.176;2023-01-31T02:39:28;3.00;99.90
19941;DHT22;10132;50.864;5.176;2023-01-31T02:41:40;3.00;99.90
19941;DHT22;10132;50.864;5.176;2023-01-31T02:43:51;3.10;99.90
19941;DHT22;10132;50.864;5.176;2023-01-31T02:46:14;3.10;99.90
19941;DHT22;10132;50.864;5.176;2023-01-31T02:48:27;3.10;99.90
19941;DHT22;10132;50.864;5.176;2023-01-31T02:50:37;3.20;99.90
19941;DHT22;10132;50.864;5.176;2023-01-31T02:52:45;3.20;99.90
19941;DHT22;10132;50.864;5.176;2023-01-31T02:54:58;3.20;99.90
19941;DHT22;10132;50.864;5.176;2023-01-31T02:57:19;3.20;99.90
19941;DHT22;10132;50.864;5.176;2023-01-31T02:59:22;3.20;99.90
19941;DHT22;10132;50.864;5.176;2023-01-31T03:01:32;3.30;99.90
19941;DHT22;10132;50.864;5.176;2023-01-31T03:03:36;3.20;99.90
19941;DHT22;10132;50.864;5.176;2023-01-31T03:05:38;3.20;99.90
19941;DHT22;10132;50.864;5.176;2023-01-31T03:07:44;3.10;99.90
19941;DHT22;10132;50.864;5.176;2023-01-31T03:09:57;3.10;99.90
19941;DHT22;10132;50.864;5.176;2023-01-31T03:12:10;3.10;99.90
19941;DHT22;10132;50.864;5.176;2023-01-31T03:14:21;3.20;99.90
19941;DHT22;10132;50.864;5.176;2023-01-31T03:16:30;3.20;99.90
19941;DHT22;10132;50.864;5.176;2023-01-31T03:18:59;3.20;99.90
19941;DHT22;10132;50.864;5.176;2023-01-31T03:21:07;3.10;99.90
19941;DHT22;10132;50.864;5.176;2023-01-31T03:23:15;3.20;99.90
19941;DHT22;10132;50.864;5.176;2023-01-31T03:25:20;3.20;99.90
19941;DHT22;10132;50.864;5.176;2023-01-31T03:27:24;3.20;99.90
19941;DHT22;10132;50.864;5.176;2023-01-31T03:29:27;3.10;99.90
19941;DHT22;10132;50.864;5.176;2023-01-31T03:31:35;3.00;99.90
19941;DHT22;10132;50.864;5.176;2023-01-31T03:33:43;3.10;99.90
19941;DHT22;10132;50.864;5.176;2023-01-31T03:35:52;3.00;99.90
19941;DHT22;10132;50.864;5.176;2023-01-31T03:38:00;3.00;99.90
19941;DHT22;10132;50.864;5.176;2023-01-31T03:40:09;3.00;99.90
19941;DHT22;10132;50.864;5.176;2023-01-31T03:42:18;3.00;99.90
19941;DHT22;10132;50.864;5.176;2023-01-31T03:44:30;3.00;99.90
19941;DHT22;10132;50.864;5.176;2023-01-31T03:46:39;3.00;99.90
19941;DHT22;10132;50.864;5.176;2023-01-31T03:48:47;3.00;99.90
19941;DHT22;10132;50.864;5.176;2023-01-31T03:50:55;3.00;99.90
19941;DHT22;10132;50.864;5.176;2023-01-31T03:53:03;3.00;99.90
19941;DHT22;10132;50.864;5.176;2023-01-31T03:55:11;3.00;99.90
19941;DHT22;10132;50.864;5.176;2023-01-31T03:57:19;2.90;99.90
19941;DHT22;10132;50.864;5.176;2023-01-31T03:59:26;3.00;99.90
19941;DHT22;10132;50.864;5.176;2023-01-31T04:01:31;3.00;99.90
19941;DHT22;10132;50.864;5.176;2023-01-31T04:03:37;2.90;99.90
19941;DHT22;10132;50.864;5.176;2023-01-31T04:05:41;2.90;99.90
19941;DHT22;10132;50.864;5.176;2023-01-31T04:07:46;3.00;99.90
19941;DHT22;10132;50.864;5.176;2023-01-31T04:09:48;3.00;99.90
19941;DHT22;10132;50.864;5.176;2023-01-31T04:11:50;2.90;99.90
19941;DHT22;10132;50.864;5.176;2023-01-31T04:13:52;2.90;99.90
19941;DHT22;10132;50.864;5.176;2023-01-31T04:15:54;2.90;99.90
19941;DHT22;10132;50.864;5.176;2023-01-31T04:17:56;2.90;99.90
19941;DHT22;10132;50.864;5.176;2023-01-31T04:19:58;2.90;99.90
19941;DHT22;10132;50.864;5.176;2023-01-31T04:22:00;2.90;99.90
19941;DHT22;10132;50.864;5.176;2023-01-31T04:24:04;2.90;99.90
19941;DHT22;10132;50.864;5.176;2023-01-31T04:26:08;3.00;99.90
19941;DHT22;10132;50.864;5.176;2023-01-31T04:28:11;3.00;99.90
19941;DHT22;10132;50.864;5.176;2023-01-31T04:30:13;2.90;99.90
19941;DHT22;10132;50.864;5.176;2023-01-31T04:32:15;2.80;99.90
19941;DHT22;10132;50.864;5.176;2023-01-31T04:34:17;2.80;99.90
19941;DHT22;10132;50.864;5.176;2023-01-31T04:36:19;2.80;99.90
19941;DHT22;10132;50.864;5.176;2023-01-31T04:38:21;2.90;99.90
19941;DHT22;10132;50.864;5.176;2023-01-31T04:40:24;2.90;99.90
19941;DHT22;10132;50.864;5.176;2023-01-31T04:42:26;2.90;99.90
19941;DHT22;10132;50.864;5.176;2023-01-31T04:44:28;3.00;99.90
19941;DHT22;10132;50.864;5.176;2023-01-31T04:46:30;2.90;99.90
19941;DHT22;10132;50.864;5.176;2023-01-31T04:48:32;2.90;99.90
19941;DHT22;10132;50.864;5.176;2023-01-31T04:50:34;3.00;99.90
19941;DHT22;10132;50.864;5.176;2023-01-31T04:52:36;2.90;99.90
19941;DHT22;10132;50.864;5.176;2023-01-31T04:54:38;2.90;99.90
19941;DHT22;10132;50.864;5.176;2023-01-31T04:56:42;3.00;99.90
19941;DHT22;10132;50.864;5.176;2023-01-31T04:58:44;2.90;99.90
19941;DHT22;10132;50.864;5.176;2023-01-31T05:00:47;2.90;99.90
19941;DHT22;10132;50.864;5.176;2023-01-31T05:02:49;2.90;99.90
19941;DHT22;10132;50.864;5.176;2023-01-31T05:04:52;2.80;99.90
19941;DHT22;10132;50.864;5.176;2023-01-31T05:06:54;2.80;99.90
19941;DHT22;10132;50.864;5.176;2023-01-31T05:08:56;2.80;99.90
19941;DHT22;10132;50.864;5.176;2023-01-31T05:11:02;2.70;99.90
19941;DHT22;10132;50.864;5.176;2023-01-31T05:13:06;2.80;99.90
19941;DHT22;10132;50.864;5.176;2023-01-31T05:15:09;2.80;99.90
19941;DHT22;10132;50.864;5.176;2023-01-31T05:17:11;2.80;99.90
19941;DHT22;10132;50.864;5.176;2023-01-31T05:19:13;2.80;99.90
19941;DHT22;10132;50.864;5.176;2023-01-31T05:21:16;2.80;99.90
19941;DHT22;10132;50.864;5.176;2023-01-31T05:23:18;2.80;99.90
19941;DHT22;10132;50.864;5.176;2023-01-31T05:25:20;2.90;99.90
19941;DHT22;10132;50.864;5.176;2023-01-31T05:27:22;2.90;99.90
19941;DHT22;10132;50.864;5.176;2023-01-31T05:29:26;2.90;99.90
19941;DHT22;10132;50.864;5.176;2023-01-31T05:31:28;3.00;99.90
19941;DHT22;10132;50.864;5.176;2023-01-31T05:33:30;3.00;99.90
19941;DHT22;10132;50.864;5.176;2023-01-31T05:35:32;3.00;99.90
19941;DHT22;10132;50.864;5.176;2023-01-31T05:37:35;3.10;99.90
19941;DHT22;10132;50.864;5.176;2023-01-31T05:39:37;3.20;99.90
19941;DHT22;10132;50.864;5.176;2023-01-31T05:41:39;3.20;99.90
19941;DHT22;10132;50.864;5.176;2023-01-31T05:43:41;3.20;99.90
19941;DHT22;10132;50.864;5.176;2023-01-31T05:45:47;3.10;99.90
19941;DHT22;10132;50.864;5.176;2023-01-31T05:47:49;3.10;99.90
19941;DHT22;10132;50.864;5.176;2023-01-31T05:49:51;3.10;99.90
19941;DHT22;10132;50.864;5.176;2023-01-31T05:51:53;3.10;99.90
19941;DHT22;10132;50.864;5.176;2023-01-31T05:53:55;3.10;99.90
19941;DHT22;10132;50.864;5.176;2023-01-31T05:55:57;3.00;99.90
19941;DHT22;10132;50.864;5.176;2023-01-31T05:57:59;3.10;99.90
19941;DHT22;10132;50.864;5.176;2023-01-31T06:00:01;3.10;99.90
19941;DHT22;10132;50.864;5.176;2023-01-31T06:02:05;3.10;99.90
19941;DHT22;10132;50.864;5.176;2023-01-31T06:04:09;3.10;99.90
19941;DHT22;10132;50.864;5.176;2023-01-31T06:06:11;3.10;99.90
19941;DHT22;10132;50.864;5.176;2023-01-31T06:08:13;3.10;99.90
19941;DHT22;10132;50.864;5.176;2023-01-31T06:10:15;3.10;99.90
19941;DHT22;10132;50.864;5.176;2023-01-31T06:12:17;3.20;99.90
19941;DHT22;10132;50.864;5.176;2023-01-31T06:14:19;3.20;99.90
19941;DHT22;10132;50.864;5.176;2023-01-31T06:16:22;3.20;99.90
19941;DHT22;10132;50.864;5.176;2023-01-31T06:18:25;3.30;99.90
19941;DHT22;10132;50.864;5.176;2023-01-31T06:20:27;3.30;99.90
19941;DHT22;10132;50.864;5.176;2023-01-31T06:22:30;3.30;99.90
19941;DHT22;10132;50.864;5.176;2023-01-31T06:24:32;3.30;99.90
19941;DHT22;10132;50.864;5.176;2023-01-31T06:26:33;3.40;99.90
19941;DHT22;10132;50.864;5.176;2023-01-31T06:28:36;3.30;99.90
19941;DHT22;10132;50.864;5.176;2023-01-31T06:30:38;3.30;99.90
19941;DHT22;10132;50.864;5.176;2023-01-31T06:32:40;3.30;99.90
19941;DHT22;10132;50.864;5.176;2023-01-31T06:34:43;3.30;99.90
19941;DHT22;10132;50.864;5.176;2023-01-31T06:36:45;3.20;99.90
19941;DHT22;10132;50.864;5.176;2023-01-31T06:38:50;3.20;99.90
19941;DHT22;10132;50.864;5.176;2023-01-31T06:40:53;3.30;99.90
19941;DHT22;10132;50.864;5.176;2023-01-31T06:42:55;3.30;99.90
19941;DHT22;10132;50.864;5.176;2023-01-31T06:44:57;3.30;99.90
19941;DHT22;10132;50.864;5.176;2023-01-31T06:46:59;3.30;99.90
19941;DHT22;10132;50.864;5.176;2023-01-31T06:49:01;3.30;99.90
19941;DHT22;10132;50.864;5.176;2023-01-31T06:51:05;3.30;99.90
19941;DHT22;10132;50.864;5.176;2023-01-31T06:53:07;3.40;99.90
19941;DHT22;10132;50.864;5.176;2023-01-31T06:55:09;3.30;99.90
19941;DHT22;10132;50.864;5.176;2023-01-31T06:57:12;3.30;99.90
19941;DHT22;10132;50.864;5.176;2023-01-31T06:59:14;3.30;99.90
19941;DHT22;10132;50.864;5.176;2023-01-31T07:01:16;3.30;99.90
19941;DHT22;10132;50.864;5.176;2023-01-31T07:03:18;3.40;99.90
19941;DHT22;10132;50.864;5.176;2023-01-31T07:05:20;3.40;99.90
19941;DHT22;10132;50.864;5.176;2023-01-31T07:07:23;3.50;99.90
19941;DHT22;10132;50.864;5.176;2023-01-31T07:09:25;3.50;99.90
19941;DHT22;10132;50.864;5.176;2023-01-31T07:11:27;3.60;99.90
19941;DHT22;10132;50.864;5.176;2023-01-31T07:13:29;3.60;99.90
19941;DHT22;10132;50.864;5.176;2023-01-31T07:15:31;3.60;99.90
19941;DHT22;10132;50.864;5.176;2023-01-31T07:17:33;3.70;99.90
19941;DHT22;10132;50.864;5.176;2023-01-31T07:19:35;3.70;99.90
19941;DHT22;10132;50.864;5.176;2023-01-31T07:21:37;3.60;99.90
19941;DHT22;10132;50.864;5.176;2023-01-31T07:23:40;3.60;99.90
19941;DHT22;10132;50.864;5.176;2023-01-31T07:25:42;3.60;99.90
19941;DHT22;10132;50.864;5.176;2023-01-31T07:27:44;3.70;99.90
19941;DHT22;10132;50.864;5.176;2023-01-31T07:29:46;3.70;99.90
19941;DHT22;10132;50.864;5.176;2023-01-31T07:31:48;3.70;99.90
19941;DHT22;10132;50.864;5.176;2023-01-31T07:33:50;3.80;99.90
19941;DHT22;10132;50.864;5.176;2023-01-31T07:35:52;3.80;99.90
19941;DHT22;10132;50.864;5.176;2023-01-31T07:37:54;3.80;99.90
19941;DHT22;10132;50.864;5.176;2023-01-31T07:39:57;3.90;99.90
19941;DHT22;10132;50.864;5.176;2023-01-31T07:41:59;3.80;99.90
19941;DHT22;10132;50.864;5.176;2023-01-31T07:44:01;3.90;99.90
19941;DHT22;10132;50.864;5.176;2023-01-31T07:46:05;4.00;99.90
19941;DHT22;10132;50.864;5.176;2023-01-31T07:48:09;4.00;99.90
19941;DHT22;10132;50.864;5.176;2023-01-31T07:50:11;4.00;99.90
19941;DHT22;10132;50.864;5.176;2023-01-31T07:52:13;4.10;99.90
19941;DHT22;10132;50.864;5.176;2023-01-31T07:54:15;4.10;99.90
19941;DHT22;10132;50.864;5.176;2023-01-31T07:56:19;4.20;99.90
19941;DHT22;10132;50.864;5.176;2023-01-31T07:58:21;4.20;99.90
19941;DHT22;10132;50.864;5.176;2023-01-31T08:00:24;4.10;99.90
19941;DHT22;10132;50.864;5.176;2023-01-31T08:02:43;4.20;99.90
19941;DHT22;10132;50.864;5.176;2023-01-31T08:05:03;4.30;99.90
19941;DHT22;10132;50.864;5.176;2023-01-31T08:07:05;4.30;99.90
19941;DHT22;10132;50.864;5.176;2023-01-31T08:09:07;4.30;99.90
19941;DHT22;10132;50.864;5.176;2023-01-31T08:11:10;4.40;99.90
19941;DHT22;10132;50.864;5.176;2023-01-31T08:13:13;4.40;99.90
19941;DHT22;10132;50.864;5.176;2023-01-31T08:15:15;4.50;99.90
19941;DHT22;10132;50.864;5.176;2023-01-31T08:17:17;4.40;99.90
19941;DHT22;10132;50.864;5.176;2023-01-31T08:19:19;4.50;99.90
19941;DHT22;10132;50.864;5.176;2023-01-31T08:21:21;4.50;99.90
19941;DHT22;10132;50.864;5.176;2023-01-31T08:23:23;4.60;99.90
19941;DHT22;10132;50.864;5.176;2023-01-31T08:25:25;4.50;99.90
19941;DHT22;10132;50.864;5.176;2023-01-31T08:27:29;4.50;99.90
19941;DHT22;10132;50.864;5.176;2023-01-31T08:29:33;4.50;99.90
19941;DHT22;10132;50.864;5.176;2023-01-31T08:31:35;4.50;99.90
19941;DHT22;10132;50.864;5.176;2023-01-31T08:33:37;4.60;99.90
19941;DHT22;10132;50.864;5.176;2023-01-31T08:35:39;4.60;99.90
19941;DHT22;10132;50.864;5.176;2023-01-31T08:37:41;4.70;99.90
19941;DHT22;10132;50.864;5.176;2023-01-31T08:39:43;4.70;99.90
19941;DHT22;10132;50.864;5.176;2023-01-31T08:41:45;4.70;99.90
19941;DHT22;10132;50.864;5.176;2023-01-31T08:43:47;4.60;99.90
19941;DHT22;10132;50.864;5.176;2023-01-31T08:45:51;4.60;99.90
19941;DHT22;10132;50.864;5.176;2023-01-31T08:47:53;4.70;99.90
19941;DHT22;10132;50.864;5.176;2023-01-31T08:49:56;4.70;99.90
19941;DHT22;10132;50.864;5.176;2023-01-31T08:51:58;4.70;99.90
19941;DHT22;10132;50.864;5.176;2023-01-31T08:54:00;4.80;99.90
19941;DHT22;10132;50.864;5.176;2023-01-31T08:56:04;4.80;99.90
19941;DHT22;10132;50.864;5.176;2023-01-31T08:58:06;4.80;99.90
19941;DHT22;10132;50.864;5.176;2023-01-31T09:00:10;4.80;99.90
19941;DHT22;10132;50.864;5.176;2023-01-31T09:02:13;4.80;99.90
19941;DHT22;10132;50.864;5.176;2023-01-31T09:04:15;4.80;99.90
19941;DHT22;10132;50.864;5.176;2023-01-31T09:06:19;4.90;99.90
19941;DHT22;10132;50.864;5.176;2023-01-31T09:08:21;4.90;99.90
19941;DHT22;10132;50.864;5.176;2023-01-31T09:10:23;4.80;99.90
19941;DHT22;10132;50.864;5.176;2023-01-31T09:12:25;4.90;99.90
19941;DHT22;10132;50.864;5.176;2023-01-31T09:14:27;4.90;99.90
19941;DHT22;10132;50.864;5.176;2023-01-31T09:16:30;5.00;99.90
19941;DHT22;10132;50.864;5.176;2023-01-31T09:18:35;5.00;99.90
19941;DHT22;10132;50.864;5.176;2023-01-31T09:20:37;5.10;99.90
19941;DHT22;10132;50.864;5.176;2023-01-31T09:22:39;5.10;99.90
19941;DHT22;10132;50.864;5.176;2023-01-31T09:24:41;5.10;99.90
19941;DHT22;10132;50.864;5.176;2023-01-31T09:26:43;5.20;99.90
19941;DHT22;10132;50.864;5.176;2023-01-31T09:28:45;5.30;99.90
19941;DHT22;10132;50.864;5.176;2023-01-31T09:30:49;5.30;99.90
19941;DHT22;10132;50.864;5.176;2023-01-31T09:32:52;5.40;99.90
19941;DHT22;10132;50.864;5.176;2023-01-31T09:34:56;5.40;99.90
19941;DHT22;10132;50.864;5.176;2023-01-31T09:36:58;5.40;99.90
19941;DHT22;10132;50.864;5.176;2023-01-31T09:39:00;5.40;99.90
19941;DHT22;10132;50.864;5.176;2023-01-31T09:41:08;5.50;99.90
19941;DHT22;10132;50.864;5.176;2023-01-31T09:43:18;5.50;99.90
19941;DHT22;10132;50.864;5.176;2023-01-31T09:45:28;5.50;99.90
19941;DHT22;10132;50.864;5.176;2023-01-31T09:47:36;5.50;99.90
19941;DHT22;10132;50.864;5.176;2023-01-31T09:49:43;5.70;99.90
19941;DHT22;10132;50.864;5.176;2023-01-31T09:51:53;5.80;99.90
19941;DHT22;10132;50.864;5.176;2023-01-31T09:53:56;5.80;99.90
19941;DHT22;10132;50.864;5.176;2023-01-31T09:56:08;5.70;99.90
19941;DHT22;10132;50.864;5.176;2023-01-31T09:58:23;5.70;99.90
19941;DHT22;10132;50.864;5.176;2023-01-31T10:00:29;5.70;99.90
19941;DHT22;10132;50.864;5.176;2023-01-31T10:03:02;5.70;99.90
19941;DHT22;10132;50.864;5.176;2023-01-31T10:05:17;5.70;99.90
19941;DHT22;10132;50.864;5.176;2023-01-31T10:07:26;5.60;99.90
19941;DHT22;10132;50.864;5.176;2023-01-31T10:09:32;5.60;99.90
19941;DHT22;10132;50.864;5.176;2023-01-31T10:11:40;5.70;99.90
19941;DHT22;10132;50.864;5.176;2023-01-31T10:13:46;5.80;99.90
19941;DHT22;10132;50.864;5.176;2023-01-31T10:15:53;6.10;99.90
19941;DHT22;10132;50.864;5.176;2023-01-31T10:17:58;6.10;99.90
19941;DHT22;10132;50.864;5.176;2023-01-31T10:20:09;6.20;99.90
19941;DHT22;10132;50.864;5.176;2023-01-31T10:22:20;6.30;99.90
19941;DHT22;10132;50.864;5.176;2023-01-31T10:24:28;6.40;99.90
19941;DHT22;10132;50.864;5.176;2023-01-31T10:26:35;6.50;99.90
19941;DHT22;10132;50.864;5.176;2023-01-31T10:28:41;6.40;99.90
19941;DHT22;10132;50.864;5.176;2023-01-31T10:30:53;6.40;99.90
19941;DHT22;10132;50.864;5.176;2023-01-31T10:33:01;6.50;99.90
19941;DHT22;10132;50.864;5.176;2023-01-31T10:35:12;6.60;99.90
19941;DHT22;10132;50.864;5.176;2023-01-31T10:37:28;6.50;99.90
19941;DHT22;10132;50.864;5.176;2023-01-31T10:39:36;6.50;99.90
19941;DHT22;10132;50.864;5.176;2023-01-31T10:41:44;6.40;99.90
19941;DHT22;10132;50.864;5.176;2023-01-31T10:43:51;6.40;99.90
19941;DHT22;10132;50.864;5.176;2023-01-31T10:45:55;6.50;99.90
19941;DHT22;10132;50.864;5.176;2023-01-31T10:48:10;6.70;99.90
19941;DHT22;10132;50.864;5.176;2023-01-31T10:50:16;6.60;99.90
19941;DHT22;10132;50.864;5.176;2023-01-31T10:52:35;6.70;99.90
19941;DHT22;10132;50.864;5.176;2023-01-31T10:54:49;6.80;99.90
19941;DHT22;10132;50.864;5.176;2023-01-31T10:56:54;6.80;99.90
19941;DHT22;10132;50.864;5.176;2023-01-31T10:58:59;6.90;99.90
19941;DHT22;10132;50.864;5.176;2023-01-31T11:01:03;6.90;99.90
19941;DHT22;10132;50.864;5.176;2023-01-31T11:03:09;6.90;99.90
19941;DHT22;10132;50.864;5.176;2023-01-31T11:05:17;6.90;99.90
19941;DHT22;10132;50.864;5.176;2023-01-31T11:07:20;6.80;99.90
19941;DHT22;10132;50.864;5.176;2023-01-31T11:09:23;6.90;99.90
19941;DHT22;10132;50.864;5.176;2023-01-31T11:11:29;6.90;99.90
19941;DHT22;10132;50.864;5.176;2023-01-31T11:13:31;6.90;99.90
19941;DHT22;10132;50.864;5.176;2023-01-31T11:15:36;7.00;99.90
19941;DHT22;10132;50.864;5.176;2023-01-31T11:17:41;7.20;99.90
19941;DHT22;10132;50.864;5.176;2023-01-31T11:19:45;7.20;99.90
19941;DHT22;10132;50.864;5.176;2023-01-31T11:21:50;7.20;99.90
19941;DHT22;10132;50.864;5.176;2023-01-31T11:24:00;7.10;99.90
19941;DHT22;10132;50.864;5.176;2023-01-31T11:26:03;7.20;99.90
19941;DHT22;10132;50.864;5.176;2023-01-31T11:28:22;7.30;99.90
19941;DHT22;10132;50.864;5.176;2023-01-31T11:30:28;7.30;99.90
19941;DHT22;10132;50.864;5.176;2023-01-31T11:32:32;7.40;99.90
19941;DHT22;10132;50.864;5.176;2023-01-31T11:34:36;7.30;99.90
19941;DHT22;10132;50.864;5.176;2023-01-31T11:36:41;7.30;99.90
19941;DHT22;10132;50.864;5.176;2023-01-31T11:38:45;7.30;99.90
19941;DHT22;10132;50.864;5.176;2023-01-31T11:40:47;7.30;99.90
19941;DHT22;10132;50.864;5.176;2023-01-31T11:42:53;7.40;99.90
19941;DHT22;10132;50.864;5.176;2023-01-31T11:44:59;7.40;99.90
19941;DHT22;10132;50.864;5.176;2023-01-31T11:47:03;7.30;99.90
19941;DHT22;10132;50.864;5.176;2023-01-31T11:49:10;7.30;99.90
19941;DHT22;10132;50.864;5.176;2023-01-31T11:51:23;7.20;99.90
19941;DHT22;10132;50.864;5.176;2023-01-31T11:53:31;7.40;99.90
19941;DHT22;10132;50.864;5.176;2023-01-31T11:55:36;7.40;99.90
19941;DHT22;10132;50.864;5.176;2023-01-31T11:57:39;7.40;99.90
19941;DHT22;10132;50.864;5.176;2023-01-31T11:59:41;7.40;99.90
19941;DHT22;10132;50.864;5.176;2023-01-31T12:01:48;7.40;99.90
19941;DHT22;10132;50.864;5.176;2023-01-31T12:03:52;7.50;99.90
19941;DHT22;10132;50.864;5.176;2023-01-31T12:06:00;7.70;99.90
19941;DHT22;10132;50.864;5.176;2023-01-31T12:08:02;7.80;99.90
19941;DHT22;10132;50.864;5.176;2023-01-31T12:10:24;7.80;99.90
19941;DHT22;10132;50.864;5.176;2023-01-31T12:12:29;7.70;99.90
19941;DHT22;10132;50.864;5.176;2023-01-31T12:14:39;7.70;99.90
19941;DHT22;10132;50.864;5.176;2023-01-31T12:16:42;7.70;99.90
19941;DHT22;10132;50.864;5.176;2023-01-31T12:18:57;7.70;99.90
19941;DHT22;10132;50.864;5.176;2023-01-31T12:21:06;7.90;99.90
19941;DHT22;10132;50.864;5.176;2023-01-31T12:23:18;7.90;99.90
19941;DHT22;10132;50.864;5.176;2023-01-31T12:25:27;7.70;99.90
19941;DHT22;10132;50.864;5.176;2023-01-31T12:27:42;7.70;99.90
19941;DHT22;10132;50.864;5.176;2023-01-31T12:30:06;7.70;99.90
19941;DHT22;10132;50.864;5.176;2023-01-31T12:32:23;7.60;99.90
19941;DHT22;10132;50.864;5.176;2023-01-31T12:34:45;7.60;99.90
19941;DHT22;10132;50.864;5.176;2023-01-31T12:37:16;7.60;99.90
19941;DHT22;10132;50.864;5.176;2023-01-31T12:39:33;7.60;99.90
19941;DHT22;10132;50.864;5.176;2023-01-31T12:41:52;7.60;99.90
19941;DHT22;10132;50.864;5.176;2023-01-31T12:44:19;7.70;99.90
19941;DHT22;10132;50.864;5.176;2023-01-31T12:46:27;7.70;99.90
19941;DHT22;10132;50.864;5.176;2023-01-31T12:51:25;7.60;99.90
19941;DHT22;10132;50.864;5.176;2023-01-31T12:53:43;7.60;99.90
19941;DHT22;10132;50.864;5.176;2023-01-31T12:55:52;7.60;99.90
19941;DHT22;10132;50.864;5.176;2023-01-31T12:58:13;7.50;99.90
19941;DHT22;10132;50.864;5.176;2023-01-31T13:00:28;7.50;99.90
19941;DHT22;10132;50.864;5.176;2023-01-31T13:02:39;7.40;99.90
19941;DHT22;10132;50.864;5.176;2023-01-31T13:04:47;7.50;99.90
19941;DHT22;10132;50.864;5.176;2023-01-31T13:06:54;7.50;99.90
19941;DHT22;10132;50.864;5.176;2023-01-31T13:09:02;7.50;99.90
19941;DHT22;10132;50.864;5.176;2023-01-31T13:11:12;7.50;99.90
19941;DHT22;10132;50.864;5.176;2023-01-31T13:13:18;7.50;99.90
19941;DHT22;10132;50.864;5.176;2023-01-31T13:15:29;7.50;99.90
19941;DHT22;10132;50.864;5.176;2023-01-31T13:17:36;7.50;99.90
19941;DHT22;10132;50.864;5.176;2023-01-31T13:19:43;7.50;99.90
19941;DHT22;10132;50.864;5.176;2023-01-31T13:21:53;7.60;99.90
19941;DHT22;10132;50.864;5.176;2023-01-31T13:23:59;7.60;99.90
19941;DHT22;10132;50.864;5.176;2023-01-31T13:26:07;7.60;99.90
19941;DHT22;10132;50.864;5.176;2023-01-31T13:28:14;7.60;99.90